Time;durP1;ratioP1;P1;durP2;ratioP2;P2;SDS_P1;SDS_P2;PMS_P1;PMS_P2;Temp;Humidity;BMP_temperature;BMP_pressure;BME280_temperature;BME280_humidity;BME280_pressure;Samples;Min_cycle;Max_cycle;Signal;HPM_P1;HPM_P2
2022/04/02 00:02:01;;;;;;;13.57;11.05;;;;;;;;;;5085716;28;20498;-66
2022/04/02 00:04:46;;;;;;;14.40;11.25;;;;;;;;;;5063942;28;20032;-67
2022/04/02 00:07:31;;;;;;;14.30;11.52;;;;;;;;;;5077790;28;20166;-67
2022/04/02 00:10:17;;;;;;;14.60;11.77;;;;;;;;;;5065062;28;20027;-67
2022/04/02 00:13:02;;;;;;;15.25;11.32;;;;;;;;;;5058183;28;20126;-72
2022/04/02 00:15:47;;;;;;;16.33;12.15;;;;;;;;;;5081707;28;20031;-66
2022/04/02 00:18:35;;;;;;;13.20;10.65;;;;;;;;;;5057276;28;20491;-65
2022/04/02 00:21:21;;;;;;;14.48;12.07;;;;;;;;;;5096457;28;20046;-65
2022/04/02 00:24:07;;;;;;;15.88;12.98;;;;;;;;;;5062846;28;20024;-68
2022/04/02 00:26:53;;;;;;;15.27;11.82;;;;;;;;;;5059488;28;20526;-68
2022/04/02 00:29:39;;;;;;;14.77;11.80;;;;;;;;;;5084534;28;20019;-65
2022/04/02 00:32:24;;;;;;;17.90;13.20;;;;;;;;;;5071663;28;20016;-69
2022/04/02 00:35:09;;;;;;;14.68;12.52;;;;;;;;;;5067027;28;20115;-67
2022/04/02 00:37:54;;;;;;;18.95;13.75;;;;;;;;;;5076788;28;20488;-69
2022/04/02 00:40:42;;;;;;;16.27;12.82;;;;;;;;;;5076545;28;20187;-66
2022/04/02 00:43:29;;;;;;;16.50;13.25;;;;;;;;;;5082537;28;20031;-68
2022/04/02 00:46:14;;;;;;;15.90;13.35;;;;;;;;;;5062813;28;20485;-69
2022/04/02 00:48:59;;;;;;;19.17;14.30;;;;;;;;;;5062852;28;20024;-66
2022/04/02 00:51:45;;;;;;;15.57;12.50;;;;;;;;;;5062739;28;20531;-64
2022/04/02 00:54:31;;;;;;;15.60;11.73;;;;;;;;;;5061090;28;20387;-66
2022/04/02 00:57:16;;;;;;;15.70;13.00;;;;;;;;;;5069617;28;20035;-66
2022/04/02 01:00:03;;;;;;;18.33;13.15;;;;;;;;;;5096486;28;20104;-64
2022/04/02 01:02:48;;;;;;;16.95;13.98;;;;;;;;;;5060637;28;20089;-62
2022/04/02 01:05:37;;;;;;;15.13;13.15;;;;;;;;;;5061400;28;20113;-62
2022/04/02 01:08:22;;;;;;;17.50;12.70;;;;;;;;;;5091430;28;20061;-66
2022/04/02 01:11:07;;;;;;;15.70;12.77;;;;;;;;;;5060576;28;20462;-63
2022/04/02 01:13:53;;;;;;;17.92;12.52;;;;;;;;;;5070322;28;20024;-68
2022/04/02 01:16:38;;;;;;;17.65;14.63;;;;;;;;;;5059097;28;20077;-64
2022/04/02 01:19:23;;;;;;;17.10;13.75;;;;;;;;;;5072423;28;20471;-63
2022/04/02 01:22:09;;;;;;;15.80;11.80;;;;;;;;;;5067649;28;20028;-65
2022/04/02 01:24:54;;;;;;;17.88;13.23;;;;;;;;;;5058946;28;20162;-69
2022/04/02 01:27:40;;;;;;;16.75;13.07;;;;;;;;;;5064830;28;20028;-70
2022/04/02 01:30:25;;;;;;;17.63;13.57;;;;;;;;;;5062280;28;20012;-69
2022/04/02 01:33:11;;;;;;;15.07;12.40;;;;;;;;;;5060001;28;20032;-69
2022/04/02 01:35:57;;;;;;;16.95;12.32;;;;;;;;;;5074097;28;20035;-73
2022/04/02 01:38:43;;;;;;;15.48;11.60;;;;;;;;;;5075686;28;20059;-72
2022/04/02 01:41:29;;;;;;;17.45;13.10;;;;;;;;;;5070818;28;20078;-74
2022/04/02 01:44:15;;;;;;;15.88;11.82;;;;;;;;;;5074907;28;20115;-62
2022/04/02 01:47:00;;;;;;;16.73;12.95;;;;;;;;;;5075837;28;20382;-66
2022/04/02 01:49:45;;;;;;;16.83;12.68;;;;;;;;;;5093234;28;20030;-67
2022/04/02 01:52:31;;;;;;;17.05;11.55;;;;;;;;;;5082550;28;20051;-68
2022/04/02 01:55:16;;;;;;;15.98;12.00;;;;;;;;;;5055554;28;20032;-67
2022/04/02 01:58:01;;;;;;;15.70;12.48;;;;;;;;;;5071111;28;20032;-67
2022/04/02 02:00:47;;;;;;;17.35;11.70;;;;;;;;;;5072475;28;20123;-67
2022/04/02 02:03:32;;;;;;;15.90;11.35;;;;;;;;;;5075227;28;20034;-64
2022/04/02 02:06:18;;;;;;;15.65;11.85;;;;;;;;;;5075247;28;20032;-72
2022/04/02 02:09:03;;;;;;;18.67;12.52;;;;;;;;;;5070275;28;20490;-72
2022/04/02 02:11:48;;;;;;;15.68;10.90;;;;;;;;;;5068062;28;20049;-71
2022/04/02 02:14:34;;;;;;;14.73;11.38;;;;;;;;;;5068865;28;20033;-73
2022/04/02 02:17:19;;;;;;;17.17;12.50;;;;;;;;;;5055486;28;20119;-73
2022/04/02 02:20:07;;;;;;;16.45;12.02;;;;;;;;;;5070936;28;20077;-73
2022/04/02 02:22:52;;;;;;;13.93;11.00;;;;;;;;;;5064356;28;20047;-73
2022/04/02 02:25:38;;;;;;;14.43;10.77;;;;;;;;;;5062759;28;20104;-77
2022/04/02 02:28:23;;;;;;;14.25;10.30;;;;;;;;;;5048332;28;20021;-77
2022/04/02 02:31:08;;;;;;;14.52;11.23;;;;;;;;;;5065775;28;20481;-76
2022/04/02 02:36:57;;;;;;;15.73;9.98;;;;;;;;;;5048973;28;20056;-77
2022/04/02 02:39:43;;;;;;;15.18;9.25;;;;;;;;;;5069848;28;20032;-72
2022/04/02 02:42:28;;;;;;;12.27;9.73;;;;;;;;;;5068771;28;20051;-78
2022/04/02 02:45:14;;;;;;;13.13;8.98;;;;;;;;;;5063608;28;20028;-77
2022/04/02 02:48:00;;;;;;;12.73;9.23;;;;;;;;;;5068485;28;20062;-76
2022/04/02 02:50:46;;;;;;;13.02;9.18;;;;;;;;;;5068370;28;20089;-76
2022/04/02 02:53:31;;;;;;;13.20;9.35;;;;;;;;;;5054582;28;20479;-76
2022/04/02 02:56:16;;;;;;;14.63;8.93;;;;;;;;;;5067023;28;20035;-77
2022/04/02 02:59:02;;;;;;;14.32;9.40;;;;;;;;;;5048942;28;20112;-70
2022/04/02 03:01:47;;;;;;;13.95;9.18;;;;;;;;;;5060656;28;20043;-67
2022/04/02 03:04:33;;;;;;;12.93;10.48;;;;;;;;;;5053997;28;20025;-68
2022/04/02 03:07:18;;;;;;;12.15;9.05;;;;;;;;;;5082394;28;20039;-68
2022/04/02 03:10:04;;;;;;;14.55;9.13;;;;;;;;;;5075893;28;20812;-67
2022/04/02 03:12:52;;;;;;;14.40;8.95;;;;;;;;;;5067903;28;20049;-69
2022/04/02 03:15:38;;;;;;;13.77;9.35;;;;;;;;;;5067887;28;20033;-75
2022/04/02 03:18:23;;;;;;;12.70;8.95;;;;;;;;;;5088038;28;20031;-65
2022/04/02 03:21:09;;;;;;;14.45;8.45;;;;;;;;;;5051582;28;20068;-67
2022/04/02 03:23:55;;;;;;;11.35;7.65;;;;;;;;;;5063532;28;20029;-67
2022/04/02 03:26:40;;;;;;;11.32;8.32;;;;;;;;;;5067519;28;20043;-66
2022/04/02 03:29:27;;;;;;;14.35;8.98;;;;;;;;;;5072391;28;20120;-68
2022/04/02 03:32:12;;;;;;;13.65;8.32;;;;;;;;;;5071344;28;20282;-67
2022/04/02 03:34:57;;;;;;;15.73;9.57;;;;;;;;;;5066516;28;20029;-77
2022/04/02 03:37:44;;;;;;;13.15;8.50;;;;;;;;;;5071668;28;20487;-68
2022/04/02 03:40:29;;;;;;;14.52;7.70;;;;;;;;;;5085251;28;20039;-67
2022/04/02 03:43:15;;;;;;;15.55;7.78;;;;;;;;;;5079867;28;20047;-70
2022/04/02 03:49:04;;;;;;;15.32;7.88;;;;;;;;;;5071587;28;20025;-68
2022/04/02 03:51:51;;;;;;;16.58;8.77;;;;;;;;;;5071669;28;20024;-66
2022/04/02 03:54:36;;;;;;;11.55;7.72;;;;;;;;;;5041509;28;20409;-70
2022/04/02 03:57:22;;;;;;;15.50;7.95;;;;;;;;;;5070728;28;20035;-63
2022/04/02 04:00:08;;;;;;;15.40;6.93;;;;;;;;;;5051679;28;20108;-67
2022/04/02 04:02:53;;;;;;;21.10;8.32;;;;;;;;;;5052598;28;20424;-63
2022/04/02 04:05:39;;;;;;;12.00;6.55;;;;;;;;;;5037942;28;20029;-62
2022/04/02 04:08:24;;;;;;;17.52;9.38;;;;;;;;;;5052925;28;20068;-63
2022/04/02 04:11:10;;;;;;;14.88;6.70;;;;;;;;;;5077751;28;20518;-70
2022/04/02 04:13:56;;;;;;;13.65;7.68;;;;;;;;;;5060126;28;20023;-76
2022/04/02 04:16:42;;;;;;;19.23;6.38;;;;;;;;;;5066454;28;20116;-76
2022/04/02 04:19:28;;;;;;;14.23;7.53;;;;;;;;;;5063248;28;20020;-78
2022/04/02 04:22:13;;;;;;;15.45;6.95;;;;;;;;;;5076353;28;20043;-76
2022/04/02 04:24:58;;;;;;;9.57;6.40;;;;;;;;;;5073150;28;20020;-77
2022/04/02 04:27:44;;;;;;;14.52;6.43;;;;;;;;;;5077324;28;20328;-76
2022/04/02 04:30:29;;;;;;;12.35;6.72;;;;;;;;;;5076922;28;20119;-69
2022/04/02 04:33:15;;;;;;;12.23;7.15;;;;;;;;;;5061621;28;20025;-74
2022/04/02 04:36:00;;;;;;;15.88;7.10;;;;;;;;;;5070749;28;20024;-72
2022/04/02 04:38:46;;;;;;;13.18;6.60;;;;;;;;;;5077285;28;20182;-71
2022/04/02 04:41:31;;;;;;;21.10;9.05;;;;;;;;;;5062664;28;20434;-75
2022/04/02 04:44:17;;;;;;;15.95;7.35;;;;;;;;;;5056797;28;20353;-72
2022/04/02 04:47:02;;;;;;;11.50;7.45;;;;;;;;;;5076356;28;20077;-76
2022/04/02 04:49:47;;;;;;;10.68;7.63;;;;;;;;;;5076807;28;20042;-72
2022/04/02 04:52:32;;;;;;;11.25;8.05;;;;;;;;;;5044385;28;20035;-68
2022/04/02 04:55:18;;;;;;;12.75;8.18;;;;;;;;;;5053283;28;20495;-64
2022/04/02 04:58:03;;;;;;;11.27;8.20;;;;;;;;;;5067052;28;20048;-66
2022/04/02 05:00:48;;;;;;;13.90;8.65;;;;;;;;;;5060593;28;20176;-66
2022/04/02 05:03:34;;;;;;;13.70;9.75;;;;;;;;;;5076666;28;20024;-66
2022/04/02 05:06:19;;;;;;;13.82;8.07;;;;;;;;;;5067858;28;20038;-68
2022/04/02 05:09:05;;;;;;;14.35;8.95;;;;;;;;;;5084203;28;20025;-77
2022/04/02 05:11:50;;;;;;;12.35;8.23;;;;;;;;;;5056095;28;20036;-76
2022/04/02 05:14:35;;;;;;;11.88;8.68;;;;;;;;;;5063946;28;20036;-76
2022/04/02 05:17:21;;;;;;;11.68;8.55;;;;;;;;;;5061752;28;20036;-76
2022/04/02 05:20:13;;;;;;;13.13;8.68;;;;;;;;;;5062951;28;20031;-76
2022/04/02 05:22:58;;;;;;;11.23;8.35;;;;;;;;;;5066717;28;20038;-77
2022/04/02 05:25:44;;;;;;;12.95;8.77;;;;;;;;;;5056341;28;20063;-66
2022/04/02 05:28:29;;;;;;;10.40;7.70;;;;;;;;;;5061697;28;20031;-69
2022/04/02 05:31:15;;;;;;;9.02;6.72;;;;;;;;;;5066529;28;20538;-69
2022/04/02 05:34:00;;;;;;;10.35;7.25;;;;;;;;;;5074841;28;20020;-71
2022/04/02 05:36:45;;;;;;;11.38;7.80;;;;;;;;;;5075626;28;20028;-71
2022/04/02 05:39:30;;;;;;;10.73;7.40;;;;;;;;;;5072993;28;20077;-70
2022/04/02 05:42:16;;;;;;;9.82;6.70;;;;;;;;;;5091865;28;20034;-67
2022/04/02 05:45:01;;;;;;;11.57;7.90;;;;;;;;;;5061179;28;20032;-67
2022/04/02 05:47:47;;;;;;;10.13;6.95;;;;;;;;;;5060697;28;20046;-64
2022/04/02 05:50:33;;;;;;;9.13;7.03;;;;;;;;;;5075895;28;20028;-66
2022/04/02 05:53:18;;;;;;;12.02;8.50;;;;;;;;;;5083328;28;20178;-63
2022/04/02 05:56:03;;;;;;;14.00;6.93;;;;;;;;;;5085592;28;20032;-67
2022/04/02 05:58:50;;;;;;;9.82;6.85;;;;;;;;;;5065231;28;20103;-65
2022/04/02 06:01:35;;;;;;;10.65;7.35;;;;;;;;;;5055354;28;20036;-66
2022/04/02 06:04:21;;;;;;;11.20;7.30;;;;;;;;;;5068268;28;20024;-72
2022/04/02 06:07:06;;;;;;;11.20;7.45;;;;;;;;;;5073592;28;20032;-70
2022/04/02 06:09:51;;;;;;;10.02;7.15;;;;;;;;;;5071088;28;20051;-71
2022/04/02 06:12:37;;;;;;;9.45;6.47;;;;;;;;;;5054713;28;20060;-71
2022/04/02 06:15:24;;;;;;;12.25;7.38;;;;;;;;;;5061381;28;20513;-72
2022/04/02 06:18:10;;;;;;;9.95;7.28;;;;;;;;;;5054067;28;20107;-72
2022/04/02 06:20:55;;;;;;;8.63;6.40;;;;;;;;;;5057663;28;20142;-71
2022/04/02 06:23:42;;;;;;;8.68;6.15;;;;;;;;;;5074695;28;20023;-69
2022/04/02 06:26:27;;;;;;;10.38;6.40;;;;;;;;;;5074397;28;20043;-67
2022/04/02 06:29:13;;;;;;;8.18;6.10;;;;;;;;;;5059046;28;20501;-67
2022/04/02 06:31:58;;;;;;;13.02;7.25;;;;;;;;;;5064341;28;20447;-66
2022/04/02 06:34:44;;;;;;;8.85;6.43;;;;;;;;;;5072575;28;20190;-66
2022/04/02 06:37:36;;;;;;;8.43;6.03;;;;;;;;;;5075026;28;20113;-65
2022/04/02 06:40:22;;;;;;;9.00;6.80;;;;;;;;;;5055600;28;20039;-73
2022/04/02 06:43:07;;;;;;;7.88;5.90;;;;;;;;;;5069275;28;20111;-68
2022/04/02 06:45:52;;;;;;;11.98;6.38;;;;;;;;;;5066082;28;20384;-68
2022/04/02 06:48:38;;;;;;;9.10;6.38;;;;;;;;;;5067045;28;20093;-68
2022/04/02 06:51:23;;;;;;;7.90;6.07;;;;;;;;;;5070238;28;20028;-70
2022/04/02 06:54:09;;;;;;;8.38;6.60;;;;;;;;;;5063169;28;20032;-69
2022/04/02 06:56:55;;;;;;;10.98;6.40;;;;;;;;;;5070586;28;20061;-64
2022/04/02 06:59:41;;;;;;;10.63;7.03;;;;;;;;;;5044145;28;20564;-68
2022/04/02 07:02:27;;;;;;;9.30;6.10;;;;;;;;;;5072849;28;20082;-68
2022/04/02 07:05:12;;;;;;;8.82;5.90;;;;;;;;;;5071813;28;20186;-68
2022/04/02 07:07:57;;;;;;;10.02;6.05;;;;;;;;;;5074475;28;20028;-69
2022/04/02 07:10:43;;;;;;;12.35;6.88;;;;;;;;;;5074082;28;20034;-68
2022/04/02 07:13:29;;;;;;;11.55;6.55;;;;;;;;;;5072906;28;20067;-67
2022/04/02 07:16:16;;;;;;;7.60;5.82;;;;;;;;;;5060961;28;20391;-71
2022/04/02 07:19:01;;;;;;;9.10;6.93;;;;;;;;;;5074243;28;20402;-67
2022/04/02 07:21:47;;;;;;;11.82;8.07;;;;;;;;;;5074312;28;20100;-65
2022/04/02 07:24:32;;;;;;;11.75;7.07;;;;;;;;;;5042436;28;20475;-66
2022/04/02 07:27:20;;;;;;;8.68;6.22;;;;;;;;;;5070006;28;20020;-66
2022/04/02 07:30:06;;;;;;;8.02;5.75;;;;;;;;;;5074666;28;20020;-66
2022/04/02 07:32:51;;;;;;;7.85;5.50;;;;;;;;;;5065665;28;20028;-63
2022/04/02 07:35:54;;;;;;;8.70;6.40;;;;;;;;;;5073640;28;20036;-68
2022/04/02 07:38:49;;;;;;;9.60;6.10;;;;;;;;;;5049423;28;20060;-67
2022/04/02 07:41:47;;;;;;;9.43;6.25;;;;;;;;;;5055455;28;20445;-68
2022/04/02 07:44:38;;;;;;;8.60;5.88;;;;;;;;;;5070265;28;20028;-69
2022/04/02 07:47:24;;;;;;;8.50;6.63;;;;;;;;;;5057439;28;20058;-67
2022/04/02 07:50:13;;;;;;;10.13;6.53;;;;;;;;;;5068335;28;20024;-66
2022/04/02 07:52:59;;;;;;;8.93;6.43;;;;;;;;;;5082017;28;20028;-70
2022/04/02 07:55:47;;;;;;;9.55;6.68;;;;;;;;;;5074322;28;20052;-78
2022/04/02 07:58:37;;;;;;;12.25;6.95;;;;;;;;;;5062037;28;20106;-76
2022/04/02 08:01:23;;;;;;;10.10;6.05;;;;;;;;;;5065098;28;20032;-76
2022/04/02 08:04:11;;;;;;;8.80;6.18;;;;;;;;;;5072755;28;20534;-76
2022/04/02 08:06:57;;;;;;;9.70;5.93;;;;;;;;;;5073910;28;20474;-77
2022/04/02 08:09:43;;;;;;;8.52;5.97;;;;;;;;;;5058683;28;20120;-66
2022/04/02 08:12:28;;;;;;;9.02;6.43;;;;;;;;;;5068418;28;20533;-67
2022/04/02 08:15:16;;;;;;;9.13;5.63;;;;;;;;;;5078273;28;20031;-73
2022/04/02 08:18:02;;;;;;;11.80;7.28;;;;;;;;;;5077010;28;20040;-73
2022/04/02 08:20:49;;;;;;;9.27;5.80;;;;;;;;;;5057290;28;20036;-74
2022/04/02 08:23:35;;;;;;;10.68;5.90;;;;;;;;;;5076321;28;20491;-72
2022/04/02 08:26:20;;;;;;;12.68;6.18;;;;;;;;;;5063453;28;20099;-73
2022/04/02 08:29:24;;;;;;;8.02;5.03;;;;;;;;;;5076867;28;20038;-67
2022/04/02 08:32:22;;;;;;;7.80;5.85;;;;;;;;;;5065744;28;20490;-68
2022/04/02 08:35:11;;;;;;;8.88;5.63;;;;;;;;;;5056884;28;20465;-66
2022/04/02 08:37:56;;;;;;;8.63;6.40;;;;;;;;;;5056865;28;20102;-67
2022/04/02 08:41:00;;;;;;;10.82;6.97;;;;;;;;;;5089897;28;20042;-67
2022/04/02 08:44:05;;;;;;;11.50;6.78;;;;;;;;;;5080536;28;20536;-66
2022/04/02 08:47:02;;;;;;;8.90;6.28;;;;;;;;;;5057375;28;20055;-67
2022/04/02 08:49:57;;;;;;;8.95;5.63;;;;;;;;;;5079168;28;20012;-68
2022/04/02 08:52:49;;;;;;;8.10;5.95;;;;;;;;;;5073356;28;20031;-67
2022/04/02 08:55:34;;;;;;;13.27;7.55;;;;;;;;;;5076510;28;20028;-68
2022/04/02 08:58:38;;;;;;;10.10;6.40;;;;;;;;;;5069702;28;20020;-68
2022/04/02 09:01:37;;;;;;;10.68;6.32;;;;;;;;;;5069825;28;20028;-65
2022/04/02 09:04:22;;;;;;;9.27;6.70;;;;;;;;;;5056423;28;20024;-68
2022/04/02 09:07:26;;;;;;;10.60;6.45;;;;;;;;;;5095476;28;20028;-66
2022/04/02 09:10:18;;;;;;;11.50;7.03;;;;;;;;;;5093986;28;20118;-67
2022/04/02 09:13:09;;;;;;;9.70;7.18;;;;;;;;;;5061592;28;20040;-66
2022/04/02 09:16:02;;;;;;;12.65;6.65;;;;;;;;;;5073675;28;20031;-68
2022/04/02 09:19:06;;;;;;;12.05;7.18;;;;;;;;;;5064498;28;20429;-67
2022/04/02 09:21:56;;;;;;;11.95;8.02;;;;;;;;;;5050408;28;20070;-67
2022/04/02 09:24:42;;;;;;;12.13;7.30;;;;;;;;;;5062342;28;20031;-66
2022/04/02 09:27:45;;;;;;;11.02;7.80;;;;;;;;;;5074718;28;20020;-78
2022/04/02 09:30:43;;;;;;;15.05;7.80;;;;;;;;;;5076132;28;20031;-79
2022/04/02 09:33:28;;;;;;;10.57;7.63;;;;;;;;;;5056207;28;20066;-77
2022/04/02 09:36:22;;;;;;;12.88;8.82;;;;;;;;;;5051596;28;20030;-77
2022/04/02 09:39:21;;;;;;;11.93;7.13;;;;;;;;;;5052169;28;20024;-76
2022/04/02 09:42:22;;;;;;;15.27;7.15;;;;;;;;;;5094511;28;20027;-68
2022/04/02 09:45:12;;;;;;;13.75;8.13;;;;;;;;;;5081988;28;20019;-67
2022/04/02 09:48:06;;;;;;;9.80;7.25;;;;;;;;;;5056094;28;20016;-68
2022/04/02 09:50:56;;;;;;;14.20;7.45;;;;;;;;;;5041727;28;20064;-68
2022/04/02 09:53:46;;;;;;;13.80;7.43;;;;;;;;;;5073117;28;20032;-68
2022/04/02 09:56:39;;;;;;;10.13;6.93;;;;;;;;;;5066732;28;20028;-65
2022/04/02 09:59:33;;;;;;;13.43;8.05;;;;;;;;;;5061376;28;20028;-67
2022/04/02 10:02:37;;;;;;;14.05;8.05;;;;;;;;;;5076823;28;20069;-77
2022/04/02 10:05:27;;;;;;;10.93;8.25;;;;;;;;;;5075352;28;20020;-73
2022/04/02 10:08:31;;;;;;;13.38;8.45;;;;;;;;;;5068158;28;20028;-68
2022/04/02 10:11:18;;;;;;;12.25;8.52;;;;;;;;;;5041249;28;20843;-69
2022/04/02 10:14:04;;;;;;;13.77;8.68;;;;;;;;;;5068636;28;20015;-66
2022/04/02 10:16:51;;;;;;;13.35;9.27;;;;;;;;;;5055293;28;20025;-68
2022/04/02 10:19:39;;;;;;;15.38;10.27;;;;;;;;;;5058520;28;20027;-77
2022/04/02 10:22:37;;;;;;;10.88;8.07;;;;;;;;;;5074842;28;20098;-67
2022/04/02 10:25:23;;;;;;;12.05;7.95;;;;;;;;;;5041617;28;20024;-67
2022/04/02 10:28:13;;;;;;;12.05;7.95;;;;;;;;;;5051385;28;20074;-67
2022/04/02 10:31:00;;;;;;;14.82;8.88;;;;;;;;;;5074926;28;20054;-66
2022/04/02 10:33:48;;;;;;;14.60;8.55;;;;;;;;;;5074174;28;20034;-67
2022/04/02 10:36:37;;;;;;;13.02;9.18;;;;;;;;;;5074233;28;20427;-68
2022/04/02 10:39:24;;;;;;;10.18;7.18;;;;;;;;;;5078334;28;20076;-68
2022/04/02 10:42:10;;;;;;;12.35;8.07;;;;;;;;;;5074629;28;20121;-64
2022/04/02 10:44:59;;;;;;;14.52;9.35;;;;;;;;;;5060079;28;20028;-65
2022/04/02 10:47:48;;;;;;;12.50;9.03;;;;;;;;;;5074809;28;20394;-64
2022/04/02 10:50:34;;;;;;;11.05;8.13;;;;;;;;;;5072695;28;20513;-64
2022/04/02 10:53:20;;;;;;;10.70;8.07;;;;;;;;;;5074332;28;20039;-64
2022/04/02 10:56:09;;;;;;;11.55;8.20;;;;;;;;;;5073972;28;20181;-65
2022/04/02 10:58:54;;;;;;;10.77;7.68;;;;;;;;;;5066535;28;20375;-67
2022/04/02 11:01:41;;;;;;;9.85;7.43;;;;;;;;;;5078007;28;20040;-67
2022/04/02 11:04:31;;;;;;;12.80;8.35;;;;;;;;;;5062470;28;20024;-67
2022/04/02 11:07:28;;;;;;;13.32;7.82;;;;;;;;;;5083419;28;20154;-67
2022/04/02 11:10:14;;;;;;;10.98;7.47;;;;;;;;;;5075494;28;20076;-67
2022/04/02 11:13:00;;;;;;;11.30;8.40;;;;;;;;;;5060189;28;20063;-68
2022/04/02 11:15:45;;;;;;;10.38;7.80;;;;;;;;;;5081393;28;20028;-63
2022/04/02 11:18:31;;;;;;;13.27;8.40;;;;;;;;;;5092882;28;20031;-63
2022/04/02 11:21:16;;;;;;;12.07;8.88;;;;;;;;;;5065156;28;20088;-62
2022/04/02 11:24:05;;;;;;;13.02;8.90;;;;;;;;;;5059954;28;20039;-62
2022/04/02 11:26:51;;;;;;;12.63;8.55;;;;;;;;;;5073676;28;20489;-64
2022/04/02 11:29:39;;;;;;;12.93;8.48;;;;;;;;;;5073531;28;20032;-64
2022/04/02 11:32:25;;;;;;;16.15;8.25;;;;;;;;;;5065548;28;20099;-67
2022/04/02 11:35:14;;;;;;;13.05;8.18;;;;;;;;;;5053745;28;20036;-73
2022/04/02 11:38:27;;;;;;;11.40;8.05;;;;;;;;;;5053713;28;20024;-77
2022/04/02 11:41:19;;;;;;;14.13;9.10;;;;;;;;;;5072426;28;20433;-76
2022/04/02 11:44:12;;;;;;;11.68;8.77;;;;;;;;;;5070799;28;20233;-77
2022/04/02 11:47:02;;;;;;;11.60;8.57;;;;;;;;;;5076690;28;20035;-77
2022/04/02 11:49:48;;;;;;;;;;;;;;;;;;5078437;28;20093;-77
2022/04/02 11:52:50;;;;;;;14.45;8.75;;;;;;;;;;5077774;28;19914;-70
2022/04/02 11:55:36;;;;;;;12.57;9.38;;;;;;;;;;5077891;28;20463;-67
2022/04/02 11:58:22;;;;;;;16.23;9.27;;;;;;;;;;5059185;28;20032;-66
2022/04/02 12:01:07;;;;;;;12.98;9.25;;;;;;;;;;5055861;28;20027;-66
2022/04/02 12:04:06;;;;;;;11.10;9.02;;;;;;;;;;5077456;28;20233;-68
2022/04/02 12:06:52;;;;;;;15.48;10.23;;;;;;;;;;5077366;28;20016;-68
2022/04/02 12:09:48;;;;;;;12.90;8.40;;;;;;;;;;5060405;28;20122;-71
2022/04/02 12:12:34;;;;;;;11.57;8.75;;;;;;;;;;5061952;28;20071;-77
2022/04/02 12:15:19;;;;;;;13.65;9.25;;;;;;;;;;5077624;28;20051;-76
2022/04/02 12:18:08;;;;;;;16.52;10.27;;;;;;;;;;5070012;28;20027;-75
2022/04/02 12:21:01;;;;;;;12.60;9.93;;;;;;;;;;5085178;28;20043;-78
2022/04/02 12:23:58;;;;;;;13.02;9.90;;;;;;;;;;5072593;28;20085;-77
2022/04/02 12:26:45;;;;;;;16.17;10.65;;;;;;;;;;5063523;28;20023;-76
2022/04/02 12:29:31;;;;;;;14.73;11.15;;;;;;;;;;5064525;28;20530;-72
2022/04/02 12:32:27;;;;;;;13.20;10.38;;;;;;;;;;5059127;28;20743;-72
2022/04/02 12:35:26;;;;;;;14.07;9.60;;;;;;;;;;5077110;28;20075;-71
2022/04/02 12:38:22;;;;;;;13.33;10.50;;;;;;;;;;5062767;28;20160;-71
2022/04/02 12:41:20;;;;;;;14.63;10.95;;;;;;;;;;5095127;28;20027;-70
2022/04/02 12:44:07;;;;;;;14.00;10.40;;;;;;;;;;5069958;28;20069;-72
2022/04/02 12:46:52;;;;;;;16.77;13.02;;;;;;;;;;5062266;28;20020;-77
2022/04/02 12:49:38;;;;;;;13.85;10.90;;;;;;;;;;5072812;28;20432;-67
2022/04/02 12:52:24;;;;;;;13.13;9.75;;;;;;;;;;5070930;28;20085;-66
2022/04/02 12:55:16;;;;;;;13.80;10.95;;;;;;;;;;5067897;28;20111;-67
2022/04/02 12:58:07;;;;;;;14.75;11.07;;;;;;;;;;5065650;28;20025;-66
2022/04/02 13:00:52;;;;;;;15.32;11.32;;;;;;;;;;5090292;28;20042;-68
2022/04/02 13:04:01;;;;;;;18.13;10.90;;;;;;;;;;5084998;28;20061;-66
2022/04/02 13:06:47;;;;;;;14.13;11.50;;;;;;;;;;5056383;28;20471;-68
2022/04/02 13:09:33;;;;;;;14.85;10.30;;;;;;;;;;5088369;28;20166;-70
2022/04/02 13:12:22;;;;;;;13.57;9.98;;;;;;;;;;5061228;28;20035;-72
2022/04/02 13:15:11;;;;;;;18.15;10.75;;;;;;;;;;5062504;28;20093;-70
2022/04/02 13:21:01;;;;;;;13.10;9.93;;;;;;;;;;5067308;28;20058;-71
2022/04/02 13:23:54;;;;;;;15.88;10.60;;;;;;;;;;5074401;28;20028;-72
2022/04/02 13:26:49;;;;;;;13.63;9.77;;;;;;;;;;5075148;28;20035;-69
2022/04/02 13:29:40;;;;;;;15.77;10.52;;;;;;;;;;5075550;28;20020;-67
2022/04/02 13:32:38;;;;;;;12.75;10.23;;;;;;;;;;5076704;28;20443;-68
2022/04/02 13:35:34;;;;;;;12.35;9.55;;;;;;;;;;5058534;28;20025;-69
2022/04/02 13:38:30;;;;;;;13.77;10.57;;;;;;;;;;5074151;28;20024;-67
2022/04/02 13:41:22;;;;;;;15.63;9.80;;;;;;;;;;5076611;28;20024;-77
2022/04/02 13:44:11;;;;;;;15.10;9.98;;;;;;;;;;5095826;28;20474;-67
2022/04/02 13:46:57;;;;;;;15.88;10.50;;;;;;;;;;5083316;28;20631;-70
2022/04/02 13:49:55;;;;;;;15.32;11.55;;;;;;;;;;5069116;28;20061;-65
2022/04/02 13:52:52;;;;;;;13.45;10.45;;;;;;;;;;5072047;28;20035;-66
2022/04/02 13:55:38;;;;;;;12.65;9.63;;;;;;;;;;5057673;28;20475;-67
2022/04/02 13:58:30;;;;;;;16.55;10.88;;;;;;;;;;5054791;28;20063;-67
2022/04/02 14:01:19;;;;;;;13.50;10.27;;;;;;;;;;5041579;28;20032;-67
2022/04/02 14:04:12;;;;;;;14.80;10.80;;;;;;;;;;5055590;28;20028;-71
2022/04/02 14:06:59;;;;;;;14.63;10.13;;;;;;;;;;5063743;28;20124;-72
2022/04/02 14:09:48;;;;;;;14.68;10.63;;;;;;;;;;5094984;28;20047;-68
2022/04/02 14:12:39;;;;;;;13.05;10.50;;;;;;;;;;5099881;28;20635;-69
2022/04/02 14:15:26;;;;;;;13.27;9.98;;;;;;;;;;5065658;28;20037;-71
2022/04/02 14:18:17;;;;;;;14.07;9.98;;;;;;;;;;5077215;28;20065;-66
2022/04/02 14:21:21;;;;;;;15.70;10.60;;;;;;;;;;5079520;28;20115;-69
2022/04/02 14:24:22;;;;;;;13.88;10.70;;;;;;;;;;5065229;28;20159;-67
2022/04/02 14:27:22;;;;;;;16.20;10.48;;;;;;;;;;5049169;28;20020;-67
2022/04/02 14:30:19;;;;;;;15.48;12.00;;;;;;;;;;5055177;28;20131;-68
2022/04/02 14:33:24;;;;;;;17.60;12.45;;;;;;;;;;5071341;28;20027;-68
2022/04/02 14:36:19;;;;;;;13.60;11.18;;;;;;;;;;5069868;28;20386;-66
2022/04/02 14:39:07;;;;;;;16.63;10.70;;;;;;;;;;5069878;28;20499;-67
2022/04/02 14:42:03;;;;;;;15.18;11.57;;;;;;;;;;5095060;28;20159;-66
2022/04/02 14:45:07;;;;;;;14.65;11.63;;;;;;;;;;5077975;28;20099;-66
2022/04/02 14:48:11;;;;;;;17.70;13.15;;;;;;;;;;5058513;28;20490;-66
2022/04/02 14:51:15;;;;;;;25.73;16.02;;;;;;;;;;5068570;28;20046;-69
2022/04/02 14:54:04;;;;;;;18.73;13.50;;;;;;;;;;5074116;28;20077;-70
2022/04/02 14:57:02;;;;;;;15.88;12.20;;;;;;;;;;5073868;28;20027;-75
2022/04/02 14:59:50;;;;;;;16.98;13.32;;;;;;;;;;5061817;28;20063;-66
2022/04/02 15:02:54;;;;;;;15.98;11.98;;;;;;;;;;5063485;28;20035;-67
2022/04/02 15:06:06;;;;;;;17.75;12.77;;;;;;;;;;5064928;28;20078;-68
2022/04/02 15:09:11;;;;;;;17.33;13.55;;;;;;;;;;5062584;28;20098;-67
2022/04/02 15:11:57;;;;;;;16.80;13.10;;;;;;;;;;5047881;28;20049;-68
2022/04/02 15:14:45;;;;;;;18.20;13.73;;;;;;;;;;5058498;28;20032;-64
2022/04/02 15:17:33;;;;;;;17.23;13.35;;;;;;;;;;5088520;28;20016;-64
2022/04/02 15:20:19;;;;;;;18.23;14.00;;;;;;;;;;5076651;28;20024;-65
2022/04/02 15:23:04;;;;;;;17.23;12.50;;;;;;;;;;5081866;28;20085;-64
2022/04/02 15:25:51;;;;;;;15.25;12.88;;;;;;;;;;5072278;28;20036;-65
2022/04/02 15:28:38;;;;;;;15.80;13.48;;;;;;;;;;5070837;28;20027;-67
2022/04/02 15:31:31;;;;;;;40.25;26.52;;;;;;;;;;5058837;28;20035;-76
2022/04/02 15:34:16;;;;;;;22.77;15.70;;;;;;;;;;5054198;28;20036;-67
2022/04/02 15:37:03;;;;;;;17.90;14.52;;;;;;;;;;5052785;28;20475;-68
2022/04/02 15:39:48;;;;;;;18.52;13.57;;;;;;;;;;5074601;28;20043;-66
2022/04/02 15:42:38;;;;;;;17.15;13.73;;;;;;;;;;5092191;28;20032;-66
2022/04/02 15:45:25;;;;;;;17.20;13.43;;;;;;;;;;5090259;28;20467;-67
2022/04/02 15:48:14;;;;;;;18.77;13.07;;;;;;;;;;5066196;28;20043;-67
2022/04/02 15:51:06;;;;;;;17.90;13.13;;;;;;;;;;5062162;28;20029;-63
2022/04/02 15:54:10;;;;;;;16.58;13.25;;;;;;;;;;5064724;28;20044;-65
2022/04/02 15:57:04;;;;;;;18.08;13.30;;;;;;;;;;5061695;28;20043;-66
2022/04/02 15:59:49;;;;;;;36.15;22.90;;;;;;;;;;5039863;28;20040;-68
2022/04/02 16:02:38;;;;;;;17.17;13.00;;;;;;;;;;5065600;28;20068;-65
2022/04/02 16:05:28;;;;;;;18.08;12.88;;;;;;;;;;5071253;28;20460;-67
2022/04/02 16:08:16;;;;;;;18.42;14.23;;;;;;;;;;5088183;28;20028;-74
2022/04/02 16:11:20;;;;;;;19.45;13.75;;;;;;;;;;5080658;28;20048;-74
2022/04/02 16:14:10;;;;;;;16.88;13.13;;;;;;;;;;5057453;28;20029;-62
2022/04/02 16:17:01;;;;;;;20.30;14.93;;;;;;;;;;5076491;28;20158;-63
2022/04/02 16:19:48;;;;;;;18.05;13.95;;;;;;;;;;5077565;28;20040;-64
2022/04/02 16:22:34;;;;;;;18.05;12.23;;;;;;;;;;5071019;28;20036;-64
2022/04/02 16:25:19;;;;;;;20.25;14.52;;;;;;;;;;5076929;28;20547;-63
2022/04/02 16:28:05;;;;;;;17.40;13.52;;;;;;;;;;5076064;28;20108;-67
2022/04/02 16:30:54;;;;;;;23.00;14.20;;;;;;;;;;5058169;28;20032;-68
2022/04/02 16:33:44;;;;;;;18.08;13.35;;;;;;;;;;5070548;28;20111;-67
2022/04/02 16:36:31;;;;;;;18.77;12.80;;;;;;;;;;5077094;28;20024;-68
2022/04/02 16:39:17;;;;;;;17.35;12.52;;;;;;;;;;5076924;28;20043;-67
2022/04/02 16:42:09;;;;;;;18.65;12.70;;;;;;;;;;5053984;28;20028;-67